Time;durP1;ratioP1;P1;durP2;ratioP2;P2;SDS_P1;SDS_P2;PMS_P1;PMS_P2;Temp;Humidity;BMP_temperature;BMP_pressure;BME280_temperature;BME280_humidity;BME280_pressure;Samples;Min_cycle;Max_cycle;Signal;HPM_P1;HPM_P2
2024/04/08 00:02:32;;;;;;;;;;;;;;;;;;6253728;28;20112;-73
2024/04/08 00:05:33;;;;;;;1.50;0.97;;;;;;;;;;6253662;28;19916;-73
2024/04/08 00:08:33;;;;;;;1.67;1.23;;;;;;;;;;6254726;28;20038;-73
2024/04/08 00:11:33;;;;;;;;;;;;;;;;;;6256438;28;20025;-73
2024/04/08 00:14:33;;;;;;;1.10;0.95;;;;;;;;;;6252588;28;19909;-72
2024/04/08 00:17:34;;;;;;;1.17;1.07;;;;;;;;;;6251269;28;20036;-73
2024/04/08 00:20:34;;;;;;;1.27;1.17;;;;;;;;;;6253696;28;20111;-79
2024/04/08 00:23:34;;;;;;;1.87;1.23;;;;;;;;;;6247513;28;20033;-79
2024/04/08 00:26:35;;;;;;;1.90;1.38;;;;;;;;;;6252236;28;20028;-79
2024/04/08 00:29:35;;;;;;;1.40;1.30;;;;;;;;;;6257183;28;20093;-79
2024/04/08 00:32:35;;;;;;;1.40;1.03;;;;;;;;;;6257798;28;20053;-79
2024/04/08 00:35:36;;;;;;;1.33;1.23;;;;;;;;;;6247800;28;20053;-79
2024/04/08 00:38:36;;;;;;;1.90;1.40;;;;;;;;;;6253250;28;20484;-79
2024/04/08 00:41:36;;;;;;;1.23;1.13;;;;;;;;;;6255390;28;20457;-80
2024/04/08 00:44:36;;;;;;;;;;;;;;;;;;6248949;28;20029;-79
2024/04/08 00:47:36;;;;;;;1.73;0.98;;;;;;;;;;6247419;28;19917;-79
2024/04/08 00:50:37;;;;;;;1.33;1.07;;;;;;;;;;6250623;28;20025;-79
2024/04/08 00:53:38;;;;;;;1.23;1.10;;;;;;;;;;6249652;28;20025;-79
2024/04/08 00:56:39;;;;;;;1.45;1.33;;;;;;;;;;6252236;28;20040;-79
2024/04/08 00:59:39;;;;;;;;;;;;;;;;;;6249972;28;20036;-79
2024/04/08 01:02:40;;;;;;;1.03;1.00;;;;;;;;;;6248980;28;20369;-79
2024/04/08 01:05:40;;;;;;;1.33;1.23;;;;;;;;;;6248482;28;20022;-80
2024/04/08 01:08:41;;;;;;;1.80;1.17;;;;;;;;;;6249424;28;20025;-78
2024/04/08 01:11:43;;;;;;;1.55;1.02;;;;;;;;;;6256781;28;20026;-80
2024/04/08 01:14:43;;;;;;;1.42;1.20;;;;;;;;;;6249560;28;20040;-80
2024/04/08 01:17:45;;;;;;;1.23;1.13;;;;;;;;;;6253017;28;20402;-80
2024/04/08 01:20:45;;;;;;;2.08;1.17;;;;;;;;;;6251040;28;20739;-79
2024/04/08 01:23:45;;;;;;;1.40;1.23;;;;;;;;;;6249653;28;20036;-80
2024/04/08 01:26:45;;;;;;;2.10;1.30;;;;;;;;;;6258278;28;20029;-79
2024/04/08 01:29:46;;;;;;;1.47;1.10;;;;;;;;;;6257552;28;20033;-79
2024/04/08 01:32:46;;;;;;;2.80;1.17;;;;;;;;;;6249524;28;20036;-78
2024/04/08 01:39:33;;;;;;;0.90;0.90;;;;;;;;;;6871770;25;20327;-79
2024/04/08 01:42:33;;;;;;;1.27;1.00;;;;;;;;;;6864624;25;20008;-79
2024/04/08 01:45:34;;;;;;;1.47;1.37;;;;;;;;;;6864950;25;20002;-79
2024/04/08 01:48:34;;;;;;;3.10;1.47;;;;;;;;;;6864280;25;20392;-79
2024/04/08 01:51:34;;;;;;;1.53;1.37;;;;;;;;;;6869829;25;20542;-79
2024/04/08 01:54:34;;;;;;;1.37;0.90;;;;;;;;;;6837917;25;20441;-79
2024/04/08 01:57:35;;;;;;;1.77;1.33;;;;;;;;;;6860589;25;20457;-78
2024/04/08 02:00:35;;;;;;;1.30;1.17;;;;;;;;;;6871813;25;20041;-79
2024/04/08 02:03:35;;;;;;;1.43;1.33;;;;;;;;;;6871754;25;20025;-79
2024/04/08 02:06:35;;;;;;;1.43;1.33;;;;;;;;;;6860519;25;20333;-79
2024/04/08 02:09:36;;;;;;;1.77;1.30;;;;;;;;;;6841941;25;20029;-79
2024/04/08 02:12:36;;;;;;;1.70;1.20;;;;;;;;;;6870450;25;20646;-79
2024/04/08 02:15:36;;;;;;;1.37;1.27;;;;;;;;;;6860884;25;20242;-79
2024/04/08 02:18:36;;;;;;;1.30;1.20;;;;;;;;;;6864354;25;19998;-79
2024/04/08 02:21:37;;;;;;;2.03;1.50;;;;;;;;;;6865625;25;20069;-79
2024/04/08 02:24:37;;;;;;;2.50;1.40;;;;;;;;;;6861316;25;20540;-79
2024/04/08 02:27:38;;;;;;;1.65;1.10;;;;;;;;;;6861480;25;20442;-79
2024/04/08 02:30:38;;;;;;;1.97;1.33;;;;;;;;;;6871520;25;20024;-79
2024/04/08 02:33:40;;;;;;;2.30;1.58;;;;;;;;;;6862243;25;20074;-78
2024/04/08 02:36:41;;;;;;;1.40;1.30;;;;;;;;;;6898155;25;19993;-79
2024/04/08 02:39:41;;;;;;;2.78;1.38;;;;;;;;;;6862691;25;20041;-79
2024/04/08 02:42:41;;;;;;;2.57;1.20;;;;;;;;;;6863166;25;20450;-79
2024/04/08 02:45:41;;;;;;;2.60;1.27;;;;;;;;;;6860780;25;20022;-79
2024/04/08 02:48:42;;;;;;;1.02;1.02;;;;;;;;;;6862859;25;20679;-78
2024/04/08 02:51:42;;;;;;;1.60;1.20;;;;;;;;;;6853599;26;20004;-78
2024/04/08 02:54:42;;;;;;;1.90;1.30;;;;;;;;;;6852475;26;20031;-79
2024/04/08 02:57:42;;;;;;;2.10;1.67;;;;;;;;;;6844897;25;20451;-79
2024/04/08 03:00:43;;;;;;;2.67;1.40;;;;;;;;;;6840923;26;20051;-79
2024/04/08 03:03:43;;;;;;;1.35;1.13;;;;;;;;;;6813139;26;20002;-79
2024/04/08 03:06:43;;;;;;;1.77;1.20;;;;;;;;;;6846117;26;20026;-79
2024/04/08 03:09:50;;;;;;;1.20;1.10;;;;;;;;;;6844265;26;20457;-79
2024/04/08 03:12:53;;;;;;;1.27;1.08;;;;;;;;;;6844617;25;20021;-79
2024/04/08 03:15:56;;;;;;;1.50;1.20;;;;;;;;;;6843531;26;20323;-77
2024/04/08 03:18:56;;;;;;;1.42;1.25;;;;;;;;;;6835975;26;20464;-79
2024/04/08 03:21:57;;;;;;;1.97;1.30;;;;;;;;;;6847888;26;20058;-79
2024/04/08 03:24:57;;;;;;;1.40;1.20;;;;;;;;;;6845096;26;20001;-79
2024/04/08 03:27:57;;;;;;;1.50;1.00;;;;;;;;;;6836644;25;20767;-78
2024/04/08 03:31:01;;;;;;;1.13;1.00;;;;;;;;;;6837073;25;20494;-79
2024/04/08 03:34:01;;;;;;;1.73;1.00;;;;;;;;;;6843456;26;20008;-79
2024/04/08 03:37:02;;;;;;;1.20;0.90;;;;;;;;;;6841768;26;19997;-79
2024/04/08 03:40:03;;;;;;;1.75;1.10;;;;;;;;;;6844910;26;20073;-79
2024/04/08 03:43:05;;;;;;;1.55;1.10;;;;;;;;;;6846976;26;20091;-79
2024/04/08 03:46:05;;;;;;;1.60;1.15;;;;;;;;;;6850456;26;20326;-79
2024/04/08 03:49:05;;;;;;;1.67;1.17;;;;;;;;;;6844573;25;20016;-79
2024/04/08 03:52:06;;;;;;;1.30;1.10;;;;;;;;;;6844879;26;19994;-78
2024/04/08 03:55:07;;;;;;;1.60;1.00;;;;;;;;;;6844820;26;20452;-79
2024/04/08 03:58:07;;;;;;;1.55;1.20;;;;;;;;;;6843034;26;20443;-79
2024/04/08 04:01:09;;;;;;;1.25;1.10;;;;;;;;;;6848764;26;20069;-80
2024/04/08 04:04:09;;;;;;;1.58;0.90;;;;;;;;;;6836768;25;19994;-79
2024/04/08 04:07:10;;;;;;;1.23;0.97;;;;;;;;;;6819997;26;20473;-79
2024/04/08 04:10:10;;;;;;;1.02;0.93;;;;;;;;;;6842585;26;20092;-78
2024/04/08 04:13:10;;;;;;;2.22;0.90;;;;;;;;;;6843968;26;20338;-78
2024/04/08 04:16:11;;;;;;;1.10;1.00;;;;;;;;;;6843543;26;20076;-79
2024/04/08 04:19:11;;;;;;;1.42;0.98;;;;;;;;;;6844032;26;20013;-79
2024/04/08 04:22:12;;;;;;;0.83;0.80;;;;;;;;;;6844680;25;19998;-78
2024/04/08 04:25:12;;;;;;;2.70;0.90;;;;;;;;;;6838467;26;20006;-78
2024/04/08 04:28:12;;;;;;;0.93;0.83;;;;;;;;;;6843957;26;20001;-78
2024/04/08 04:31:12;;;;;;;0.90;0.70;;;;;;;;;;6847464;26;19993;-79
2024/04/08 04:34:12;;;;;;;1.20;0.83;;;;;;;;;;6839048;26;20001;-79
2024/04/08 04:37:13;;;;;;;0.80;0.80;;;;;;;;;;6842139;25;20001;-79
2024/04/08 04:40:13;;;;;;;0.83;0.80;;;;;;;;;;6815962;25;20461;-78
2024/04/08 04:43:13;;;;;;;2.43;1.00;;;;;;;;;;6815243;26;20001;-79
2024/04/08 04:46:14;;;;;;;1.17;0.80;;;;;;;;;;6825679;26;20819;-79
2024/04/08 04:49:14;;;;;;;0.90;0.70;;;;;;;;;;6828175;25;20004;-79
2024/04/08 04:52:14;;;;;;;1.10;0.80;;;;;;;;;;6825676;26;20005;-79
2024/04/08 04:55:14;;;;;;;1.07;0.83;;;;;;;;;;6816741;26;19994;-79
2024/04/08 04:58:14;;;;;;;3.43;0.87;;;;;;;;;;6828762;25;20078;-78
2024/04/08 05:01:15;;;;;;;0.73;0.73;;;;;;;;;;6825528;26;20034;-83
2024/04/08 05:04:15;;;;;;;0.63;0.63;;;;;;;;;;6829080;26;20404;-78
2024/04/08 05:07:15;;;;;;;1.40;0.70;;;;;;;;;;6818153;26;20786;-79
2024/04/08 05:10:16;;;;;;;0.67;0.60;;;;;;;;;;6815806;25;20458;-79
2024/04/08 05:13:17;;;;;;;1.40;0.90;;;;;;;;;;6833457;25;20831;-79
2024/04/08 05:16:19;;;;;;;1.80;0.90;;;;;;;;;;6819981;26;20375;-80
2024/04/08 05:19:19;;;;;;;;;;;;;;;;;;6813678;26;19994;-80
2024/04/08 05:22:20;;;;;;;1.10;0.80;;;;;;;;;;6824820;25;20012;-80
2024/04/08 05:25:20;;;;;;;2.80;1.00;;;;;;;;;;6822154;26;19990;-80
2024/04/08 05:28:21;;;;;;;1.67;1.07;;;;;;;;;;6813923;26;20006;-81
2024/04/08 05:31:21;;;;;;;2.13;1.33;;;;;;;;;;6818848;25;20006;-81
2024/04/08 05:34:21;;;;;;;1.33;1.20;;;;;;;;;;6811231;26;19993;-77
2024/04/08 05:37:22;;;;;;;1.60;1.30;;;;;;;;;;6842122;25;20556;-80
2024/04/08 05:40:22;;;;;;;1.95;1.25;;;;;;;;;;6817134;25;20481;-77
2024/04/08 05:43:22;;;;;;;2.43;1.20;;;;;;;;;;6824687;25;20001;-79
2024/04/08 05:46:24;;;;;;;1.50;1.10;;;;;;;;;;6844416;25;20346;-79
2024/04/08 05:49:24;;;;;;;2.33;1.15;;;;;;;;;;6815705;26;20008;-77
2024/04/08 05:52:25;;;;;;;1.27;1.10;;;;;;;;;;6817479;26;19994;-77
2024/04/08 05:55:27;;;;;;;1.50;1.15;;;;;;;;;;6825549;25;20004;-77
2024/04/08 05:58:28;;;;;;;1.90;1.33;;;;;;;;;;6825682;26;19999;-80
2024/04/08 06:01:28;;;;;;;1.10;0.97;;;;;;;;;;6842008;26;19994;-79
2024/04/08 06:04:28;;;;;;;1.20;1.10;;;;;;;;;;6828508;26;20059;-77
2024/04/08 06:07:28;;;;;;;1.53;1.00;;;;;;;;;;6830577;26;20022;-77
2024/04/08 06:10:34;;;;;;;1.27;0.90;;;;;;;;;;6788047;26;20004;-77
2024/04/08 06:13:34;;;;;;;1.70;0.98;;;;;;;;;;6803884;25;20324;-77
2024/04/08 06:16:35;;;;;;;2.40;1.17;;;;;;;;;;6822269;26;19994;-74
2024/04/08 06:19:35;;;;;;;;;;;;;;;;;;6820672;26;20421;-74
2024/04/08 06:22:35;;;;;;;2.67;1.20;;;;;;;;;;6827356;26;19930;-74
2024/04/08 06:25:35;;;;;;;1.38;0.95;;;;;;;;;;6817284;25;20038;-74
2024/04/08 06:28:35;;;;;;;;;;;;;;;;;;6818073;25;20103;-74
2024/04/08 06:31:36;;;;;;;0.98;0.77;;;;;;;;;;6821348;26;20281;-74
2024/04/08 06:34:36;;;;;;;0.90;0.90;;;;;;;;;;6794006;26;20006;-74
2024/04/08 06:37:36;;;;;;;;;;;;;;;;;;6846092;25;20450;-74
2024/04/08 06:40:36;;;;;;;1.00;0.82;;;;;;;;;;6805397;25;19932;-73
2024/04/08 06:43:37;;;;;;;1.90;0.88;;;;;;;;;;6815874;25;20033;-75
2024/04/08 06:46:37;;;;;;;1.08;0.80;;;;;;;;;;6821330;26;19998;-77
2024/04/08 06:49:37;;;;;;;;;;;;;;;;;;6816546;26;19990;-82
2024/04/08 06:52:37;;;;;;;0.68;0.65;;;;;;;;;;6846892;26;19923;-80
2024/04/08 06:55:38;;;;;;;;;;;;;;;;;;6848627;25;20010;-80
2024/04/08 06:58:38;;;;;;;1.00;0.85;;;;;;;;;;6861156;26;19924;-78
2024/04/08 07:01:39;;;;;;;;;;;;;;;;;;6830203;26;19989;-80
2024/04/08 07:04:39;;;;;;;1.70;0.70;;;;;;;;;;6853066;26;19931;-80
2024/04/08 07:07:39;;;;;;;;;;;;;;;;;;6814960;26;20017;-80
2024/04/08 07:10:40;;;;;;;0.52;0.50;;;;;;;;;;6830000;25;19942;-78
2024/04/08 07:13:40;;;;;;;;;;;;;;;;;;6832363;26;20356;-78
2024/04/08 07:16:40;;;;;;;1.10;0.50;;;;;;;;;;6834504;25;20380;-78
2024/04/08 07:19:41;;;;;;;;;;;;;;;;;;6841030;26;19995;-74
2024/04/08 07:22:41;;;;;;;1.77;0.70;;;;;;;;;;6817325;26;20283;-73
2024/04/08 07:25:41;;;;;;;;;;;;;;;;;;6811091;26;19997;-73
2024/04/08 07:28:41;;;;;;;0.68;0.60;;;;;;;;;;6836217;25;20635;-73
2024/04/08 07:31:41;;;;;;;;;;;;;;;;;;6858398;26;20069;-73
2024/04/08 07:34:42;;;;;;;0.93;0.70;;;;;;;;;;6850795;26;19932;-73
2024/04/08 07:37:42;;;;;;;1.40;0.90;;;;;;;;;;6467786;25;9999894;-74
2024/04/08 07:40:43;;;;;;;1.37;0.83;;;;;;;;;;6861015;25;20006;-73
2024/04/08 07:43:43;;;;;;;;;;;;;;;;;;6860415;25;20238;-73
2024/04/08 07:46:43;;;;;;;1.90;0.60;;;;;;;;;;6830539;25;20352;-73
2024/04/08 07:49:47;;;;;;;0.97;0.80;;;;;;;;;;6835763;26;20001;-73
2024/04/08 07:52:48;;;;;;;1.40;1.13;;;;;;;;;;6820333;26;20243;-72
2024/04/08 07:55:48;;;;;;;1.20;0.95;;;;;;;;;;6832710;26;20087;-74
2024/04/08 07:58:48;;;;;;;1.00;0.73;;;;;;;;;;6799324;26;19990;-73
2024/04/08 08:01:50;;;;;;;1.20;0.70;;;;;;;;;;6833173;26;20282;-73
2024/04/08 08:04:50;;;;;;;1.10;0.75;;;;;;;;;;6861188;26;19993;-74
2024/04/08 08:07:51;;;;;;;1.25;0.70;;;;;;;;;;6844814;26;20009;-74
2024/04/08 08:10:52;;;;;;;1.17;0.77;;;;;;;;;;6862651;25;20020;-74
2024/04/08 08:13:52;;;;;;;0.98;0.73;;;;;;;;;;6859827;26;20218;-74
2024/04/08 08:16:52;;;;;;;1.10;1.00;;;;;;;;;;6830601;25;22139;-75
2024/04/08 08:19:53;;;;;;;0.80;0.67;;;;;;;;;;6829736;26;20271;-74
2024/04/08 08:22:56;;;;;;;1.02;0.82;;;;;;;;;;6814664;26;20227;-74
2024/04/08 08:25:58;;;;;;;1.15;0.85;;;;;;;;;;6817709;26;20057;-75
2024/04/08 08:28:58;;;;;;;1.85;1.00;;;;;;;;;;6799333;25;20094;-78
2024/04/08 08:31:58;;;;;;;1.03;0.70;;;;;;;;;;6860829;26;20005;-77
2024/04/08 08:34:59;;;;;;;0.80;0.77;;;;;;;;;;6860620;26;20607;-77
2024/04/08 08:37:59;;;;;;;1.50;1.10;;;;;;;;;;6829863;25;20002;-79
2024/04/08 08:41:09;;;;;;;1.42;0.82;;;;;;;;;;6784138;26;20590;-79
2024/04/08 08:44:10;;;;;;;1.25;0.90;;;;;;;;;;6836884;26;19998;-79
2024/04/08 08:47:10;;;;;;;1.95;0.82;;;;;;;;;;6845823;25;19998;-79
2024/04/08 08:50:11;;;;;;;3.20;0.93;;;;;;;;;;6782333;26;20461;-79
2024/04/08 08:53:12;;;;;;;0.80;0.80;;;;;;;;;;6814342;26;20447;-78
2024/04/08 08:56:15;;;;;;;0.98;0.70;;;;;;;;;;6868921;25;19989;-79
2024/04/08 08:59:16;;;;;;;0.70;0.70;;;;;;;;;;6855371;26;19997;-79
2024/04/08 09:02:16;;;;;;;0.88;0.70;;;;;;;;;;6858316;25;20007;-79
2024/04/08 09:05:17;;;;;;;0.68;0.68;;;;;;;;;;6858770;26;20330;-79
2024/04/08 09:08:17;;;;;;;0.70;0.70;;;;;;;;;;6853546;26;20017;-79
2024/04/08 09:11:17;;;;;;;1.30;0.87;;;;;;;;;;6786103;26;20449;-79
2024/04/08 09:14:17;;;;;;;1.67;0.93;;;;;;;;;;6824697;25;20267;-79
2024/04/08 09:17:18;;;;;;;1.45;0.70;;;;;;;;;;6859420;25;20614;-79
2024/04/08 09:20:18;;;;;;;1.52;0.88;;;;;;;;;;6826481;26;19989;-80
2024/04/08 09:23:19;;;;;;;1.00;0.80;;;;;;;;;;6846296;26;19994;-81
2024/04/08 09:26:19;;;;;;;1.70;0.80;;;;;;;;;;6784481;26;20575;-71
2024/04/08 09:29:19;;;;;;;2.33;0.90;;;;;;;;;;6803786;26;20004;-72
2024/04/08 09:32:20;;;;;;;1.70;1.40;;;;;;;;;;6851359;25;20220;-80
2024/04/08 09:35:20;;;;;;;2.42;0.90;;;;;;;;;;6799715;26;20729;-80
2024/04/08 09:38:21;;;;;;;1.90;0.93;;;;;;;;;;6855185;26;20399;-82
2024/04/08 09:41:23;;;;;;;1.30;0.90;;;;;;;;;;6836468;26;20245;-82
2024/04/08 09:44:24;;;;;;;2.03;1.00;;;;;;;;;;6823794;26;20322;-81
2024/04/08 09:47:25;;;;;;;1.13;0.85;;;;;;;;;;6859876;26;20065;-81
2024/04/08 09:50:27;;;;;;;2.17;0.90;;;;;;;;;;6843348;25;19998;-81
2024/04/08 09:53:32;;;;;;;1.13;1.00;;;;;;;;;;6851838;26;19999;-80
2024/04/08 09:56:35;;;;;;;1.20;0.73;;;;;;;;;;6784064;26;20025;-81
2024/04/08 09:59:38;;;;;;;1.38;0.90;;;;;;;;;;6818553;26;20008;-82
2024/04/08 10:02:41;;;;;;;0.80;0.70;;;;;;;;;;6793248;26;20012;-83
2024/04/08 10:05:42;;;;;;;1.30;0.80;;;;;;;;;;6833545;25;20006;-83
2024/04/08 10:08:43;;;;;;;1.10;0.65;;;;;;;;;;6836965;26;20009;-82
2024/04/08 10:11:45;;;;;;;4.57;0.90;;;;;;;;;;6786739;26;20006;-84
2024/04/08 10:14:47;;;;;;;0.90;0.73;;;;;;;;;;6844929;25;19994;-82
2024/04/08 10:17:50;;;;;;;1.08;0.77;;;;;;;;;;6825872;26;20006;-84
2024/04/08 10:20:50;;;;;;;1.65;0.70;;;;;;;;;;6817788;26;19994;-81
2024/04/08 10:23:51;;;;;;;1.02;0.80;;;;;;;;;;6818541;26;19986;-81
2024/04/08 10:26:57;;;;;;;0.80;0.75;;;;;;;;;;6821622;26;20023;-77
2024/04/08 10:29:58;;;;;;;1.17;0.57;;;;;;;;;;6817278;25;20010;-78
2024/04/08 10:32:59;;;;;;;2.67;0.85;;;;;;;;;;6819089;26;20539;-77
2024/04/08 10:35:59;;;;;;;4.90;0.70;;;;;;;;;;6854396;26;20073;-74
2024/04/08 10:39:01;;;;;;;0.70;0.67;;;;;;;;;;6862811;26;20334;-74
2024/04/08 10:42:11;;;;;;;4.53;0.70;;;;;;;;;;6848469;26;20038;-77
2024/04/08 10:45:11;;;;;;;0.57;0.57;;;;;;;;;;6831063;25;20340;-76
2024/04/08 10:48:12;;;;;;;0.70;0.65;;;;;;;;;;6823559;25;19990;-82
2024/04/08 10:51:12;;;;;;;0.80;0.60;;;;;;;;;;6846585;25;19998;-82
2024/04/08 10:54:13;;;;;;;1.20;0.63;;;;;;;;;;6818724;25;20435;-82
2024/04/08 10:57:13;;;;;;;0.63;0.60;;;;;;;;;;6857904;26;19993;-81
2024/04/08 11:00:13;;;;;;;2.43;0.60;;;;;;;;;;6835184;26;20005;-80
2024/04/08 11:03:14;;;;;;;2.53;0.80;;;;;;;;;;6862226;26;19990;-81
2024/04/08 11:06:14;;;;;;;0.80;0.60;;;;;;;;;;6829915;26;19990;-80
2024/04/08 11:09:14;;;;;;;0.50;0.43;;;;;;;;;;6829646;26;19997;-80
2024/04/08 11:12:14;;;;;;;0.90;0.60;;;;;;;;;;6863363;26;20037;-81
2024/04/08 11:15:16;;;;;;;0.87;0.50;;;;;;;;;;6850077;25;20702;-80
2024/04/08 11:18:18;;;;;;;2.10;0.70;;;;;;;;;;6862383;26;20554;-81
2024/04/08 11:21:18;;;;;;;1.58;0.88;;;;;;;;;;6862307;26;20419;-82
2024/04/08 11:24:19;;;;;;;1.48;0.60;;;;;;;;;;6862757;26;19986;-82
2024/04/08 11:27:19;;;;;;;1.65;0.70;;;;;;;;;;6830484;26;20000;-83
2024/04/08 11:30:19;;;;;;;0.80;0.60;;;;;;;;;;6861560;25;20008;-82
2024/04/08 11:33:19;;;;;;;1.63;0.40;;;;;;;;;;6857652;25;19993;-82
2024/04/08 11:36:20;;;;;;;0.80;0.50;;;;;;;;;;6862085;26;20257;-82
2024/04/08 11:39:20;;;;;;;1.60;0.60;;;;;;;;;;6862574;26;20000;-81
2024/04/08 11:42:20;;;;;;;1.07;0.70;;;;;;;;;;6863307;26;20004;-81
2024/04/08 11:45:20;;;;;;;0.67;0.60;;;;;;;;;;6868605;25;20235;-81
2024/04/08 11:48:21;;;;;;;1.33;0.53;;;;;;;;;;6822652;25;20005;-81
2024/04/08 11:51:22;;;;;;;0.85;0.60;;;;;;;;;;6831813;26;20266;-81
2024/04/08 11:54:22;;;;;;;1.37;0.77;;;;;;;;;;6860318;26;20002;-79
2024/04/08 11:57:22;;;;;;;0.90;0.52;;;;;;;;;;6847939;26;20232;-81
2024/04/08 12:00:23;;;;;;;3.13;0.60;;;;;;;;;;6841249;26;19989;-82
2024/04/08 12:03:23;;;;;;;1.45;0.68;;;;;;;;;;6822049;25;20034;-81
2024/04/08 12:06:23;;;;;;;0.47;0.40;;;;;;;;;;6839130;25;19997;-79
2024/04/08 12:09:24;;;;;;;0.83;0.60;;;;;;;;;;6845311;26;20574;-78
2024/04/08 12:12:24;;;;;;;0.60;0.60;;;;;;;;;;6844012;25;20343;-80
2024/04/08 12:15:24;;;;;;;0.67;0.67;;;;;;;;;;6816742;26;20082;-81
2024/04/08 12:18:25;;;;;;;0.50;0.50;;;;;;;;;;6821572;25;20304;-79
2024/04/08 12:21:26;;;;;;;0.82;0.70;;;;;;;;;;6834916;26;19998;-80
2024/04/08 12:24:26;;;;;;;0.70;0.63;;;;;;;;;;6841251;26;20486;-81
2024/04/08 12:27:28;;;;;;;2.22;0.73;;;;;;;;;;6861231;26;19998;-83
2024/04/08 12:30:29;;;;;;;0.60;0.60;;;;;;;;;;6848898;26;20353;-81
2024/04/08 12:33:29;;;;;;;0.52;0.50;;;;;;;;;;6843551;26;19997;-82
2024/04/08 12:36:29;;;;;;;2.40;0.57;;;;;;;;;;6835620;25;19998;-82
2024/04/08 12:39:30;;;;;;;1.27;0.73;;;;;;;;;;6845790;26;20041;-81
2024/04/08 12:42:30;;;;;;;1.00;0.70;;;;;;;;;;6891964;25;19997;-80
2024/04/08 12:45:30;;;;;;;1.03;0.70;;;;;;;;;;6831965;26;19989;-82
2024/04/08 12:48:31;;;;;;;0.95;0.70;;;;;;;;;;6860242;26;20379;-80
2024/04/08 12:51:31;;;;;;;1.60;0.60;;;;;;;;;;6848312;26;19994;-81
2024/04/08 12:54:31;;;;;;;1.20;1.10;;;;;;;;;;6859587;26;20354;-80
2024/04/08 12:57:32;;;;;;;0.87;0.70;;;;;;;;;;6826513;26;20451;-80
2024/04/08 13:00:32;;;;;;;1.05;0.70;;;;;;;;;;6824955;26;20544;-80
2024/04/08 13:03:32;;;;;;;2.20;0.77;;;;;;;;;;6877057;25;20009;-79
2024/04/08 13:06:32;;;;;;;0.90;0.70;;;;;;;;;;6856662;26;20013;-79
2024/04/08 13:09:32;;;;;;;0.73;0.60;;;;;;;;;;6840586;26;20836;-76
2024/04/08 13:12:33;;;;;;;1.10;0.77;;;;;;;;;;6851775;26;20270;-75
2024/04/08 13:15:33;;;;;;;1.98;0.70;;;;;;;;;;6859388;26;20001;-75
2024/04/08 13:18:41;;;;;;;0.70;0.70;;;;;;;;;;6828070;26;20029;-76
2024/04/08 13:21:43;;;;;;;1.00;0.75;;;;;;;;;;6826678;26;20230;-75
2024/04/08 13:24:44;;;;;;;0.70;0.70;;;;;;;;;;6822683;26;20068;-78
2024/04/08 13:27:44;;;;;;;0.90;0.60;;;;;;;;;;6825604;26;20007;-76
2024/04/08 13:30:44;;;;;;;1.45;0.60;;;;;;;;;;6855738;26;20001;-76
2024/04/08 13:33:45;;;;;;;2.20;0.70;;;;;;;;;;6825535;26;20487;-77
2024/04/08 13:36:45;;;;;;;1.13;0.70;;;;;;;;;;6842275;26;20227;-76
2024/04/08 13:39:45;;;;;;;1.30;0.70;;;;;;;;;;6814743;26;20323;-76
2024/04/08 13:42:46;;;;;;;0.73;0.57;;;;;;;;;;6845145;26;20005;-77
2024/04/08 13:45:46;;;;;;;1.20;0.70;;;;;;;;;;6857338;26;20037;-77
2024/04/08 13:48:47;;;;;;;0.73;0.63;;;;;;;;;;6866851;25;20233;-76
2024/04/08 13:51:54;;;;;;;1.38;0.70;;;;;;;;;;6837575;25;20646;-76
2024/04/08 13:54:54;;;;;;;1.45;0.80;;;;;;;;;;6830401;26;19998;-77
2024/04/08 13:57:54;;;;;;;2.53;0.50;;;;;;;;;;6820335;26;20089;-76
2024/04/08 14:00:55;;;;;;;1.60;0.80;;;;;;;;;;6860525;26;19999;-76
2024/04/08 14:03:58;;;;;;;0.73;0.52;;;;;;;;;;6855441;26;20012;-80
2024/04/08 14:07:00;;;;;;;3.20;0.88;;;;;;;;;;6826338;25;20077;-76
2024/04/08 14:10:00;;;;;;;0.98;0.80;;;;;;;;;;6834222;26;20008;-76
2024/04/08 14:13:00;;;;;;;0.90;0.70;;;;;;;;;;6859923;26;19997;-76
2024/04/08 14:16:01;;;;;;;1.23;0.60;;;;;;;;;;6847934;26;20009;-77
2024/04/08 14:19:01;;;;;;;1.17;0.80;;;;;;;;;;6849954;26;20406;-77
2024/04/08 14:22:01;;;;;;;1.90;1.15;;;;;;;;;;6815815;26;20427;-77
2024/04/08 14:25:03;;;;;;;1.05;0.95;;;;;;;;;;6826403;25;20042;-77
2024/04/08 14:28:04;;;;;;;1.27;0.80;;;;;;;;;;6827123;26;20001;-77
2024/04/08 14:31:07;;;;;;;0.60;0.60;;;;;;;;;;6859497;26;19993;-78
2024/04/08 14:34:08;;;;;;;0.88;0.77;;;;;;;;;;6812294;26;20009;-77
2024/04/08 14:37:09;;;;;;;1.02;0.90;;;;;;;;;;6825455;26;20046;-77
2024/04/08 14:40:09;;;;;;;1.43;0.80;;;;;;;;;;6829820;25;20463;-76
2024/04/08 14:43:10;;;;;;;1.33;0.82;;;;;;;;;;6826638;26;20452;-83
2024/04/08 14:46:10;;;;;;;1.70;0.80;;;;;;;;;;6859020;25;20010;-82
2024/04/08 14:49:10;;;;;;;0.60;0.60;;;;;;;;;;6862495;26;20084;-82
2024/04/08 14:52:12;;;;;;;0.70;0.60;;;;;;;;;;6846927;25;20360;-82
2024/04/08 14:55:16;;;;;;;0.95;0.60;;;;;;;;;;6834453;26;20028;-82
2024/04/08 14:58:16;;;;;;;1.40;0.68;;;;;;;;;;6817975;26;19993;-82
2024/04/08 15:01:17;;;;;;;0.70;0.60;;;;;;;;;;6817993;26;19991;-82
2024/04/08 15:04:17;;;;;;;0.82;0.60;;;;;;;;;;6846788;26;20035;-82
2024/04/08 15:07:19;;;;;;;0.68;0.68;;;;;;;;;;6848924;25;19990;-82
2024/04/08 15:10:22;;;;;;;1.92;0.68;;;;;;;;;;6817717;26;19990;-82
2024/04/08 15:13:22;;;;;;;1.25;0.70;;;;;;;;;;6837880;25;20012;-82
2024/04/08 15:16:23;;;;;;;1.00;0.60;;;;;;;;;;6860649;26;19993;-82
2024/04/08 15:19:23;;;;;;;2.17;0.80;;;;;;;;;;6829928;26;20231;-83
2024/04/08 15:22:23;;;;;;;0.80;0.60;;;;;;;;;;6815645;26;20026;-83
2024/04/08 15:25:23;;;;;;;0.83;0.67;;;;;;;;;;6853521;25;20262;-80
2024/04/08 15:28:24;;;;;;;1.03;0.70;;;;;;;;;;6846177;26;19986;-79
2024/04/08 15:31:24;;;;;;;2.22;0.82;;;;;;;;;;6828367;26;20009;-80
2024/04/08 15:34:24;;;;;;;0.97;0.73;;;;;;;;;;6858357;26;19993;-80
2024/04/08 15:37:25;;;;;;;1.97;0.70;;;;;;;;;;6857734;26;20735;-80
2024/04/08 15:40:25;;;;;;;1.83;0.70;;;;;;;;;;6822633;25;20476;-79
2024/04/08 15:43:26;;;;;;;2.00;0.70;;;;;;;;;;6824380;26;20462;-80
2024/04/08 15:46:30;;;;;;;1.60;0.70;;;;;;;;;;6819771;26;20442;-80
2024/04/08 15:49:30;;;;;;;1.00;0.70;;;;;;;;;;6816240;26;20446;-80
2024/04/08 15:52:30;;;;;;;1.80;0.87;;;;;;;;;;6855704;25;19993;-80
2024/04/08 15:55:31;;;;;;;1.13;0.80;;;;;;;;;;6862070;26;20013;-80
2024/04/08 15:58:31;;;;;;;1.03;0.73;;;;;;;;;;6862559;26;20219;-80
2024/04/08 16:01:31;;;;;;;2.85;1.00;;;;;;;;;;6867071;25;19994;-80
2024/04/08 16:04:31;;;;;;;0.60;0.60;;;;;;;;;;6837676;26;19987;-80
2024/04/08 16:07:32;;;;;;;0.93;0.88;;;;;;;;;;6830229;25;20010;-80
2024/04/08 16:10:36;;;;;;;1.42;1.00;;;;;;;;;;6816549;26;20342;-80
2024/04/08 16:13:36;;;;;;;1.20;0.95;;;;;;;;;;6843117;26;19998;-80
2024/04/08 16:16:36;;;;;;;0.90;0.77;;;;;;;;;;6842761;26;20456;-80
2024/04/08 16:19:36;;;;;;;2.23;0.80;;;;;;;;;;6860886;26;20446;-80
2024/04/08 16:22:36;;;;;;;0.80;0.80;;;;;;;;;;6837044;26;20451;-80
2024/04/08 16:25:40;;;;;;;1.13;0.90;;;;;;;;;;6823973;25;20544;-80
2024/04/08 16:28:40;;;;;;;1.08;0.65;;;;;;;;;;6830369;26;19994;-80
2024/04/08 16:31:41;;;;;;;1.10;0.60;;;;;;;;;;6788805;26;20439;-77
2024/04/08 16:34:43;;;;;;;0.90;0.70;;;;;;;;;;6821913;26;20022;-77
2024/04/08 16:37:45;;;;;;;0.80;0.80;;;;;;;;;;6821754;26;20283;-76
2024/04/08 16:40:45;;;;;;;1.83;0.70;;;;;;;;;;6825199;26;20009;-74
2024/04/08 16:43:46;;;;;;;1.17;0.80;;;;;;;;;;6834646;25;20001;-81
2024/04/08 16:46:47;;;;;;;1.15;0.70;;;;;;;;;;6799314;26;20025;-82
2024/04/08 16:49:47;;;;;;;1.35;0.77;;;;;;;;;;6812180;26;20339;-82
2024/04/08 16:52:47;;;;;;;1.03;0.83;;;;;;;;;;6814941;26;20033;-82
2024/04/08 16:55:55;;;;;;;6.63;3.53;;;;;;;;;;6818316;26;20678;-78
2024/04/08 16:58:55;;;;;;;14.27;5.70;;;;;;;;;;6813638;26;20006;-77
2024/04/08 17:01:55;;;;;;;4.63;3.40;;;;;;;;;;6840582;26;20047;-84
2024/04/08 17:04:55;;;;;;;10.67;9.57;;;;;;;;;;6801992;26;19994;-76
2024/04/08 17:07:56;;;;;;;12.80;11.80;;;;;;;;;;6855043;25;19994;-78
2024/04/08 17:11:03;;;;;;;8.95;8.20;;;;;;;;;;6817180;26;20005;-83
2024/04/08 17:14:03;;;;;;;5.53;5.13;;;;;;;;;;6814880;26;19998;-83
2024/04/08 17:17:03;;;;;;;3.03;2.72;;;;;;;;;;6828197;26;20468;-79
2024/04/08 17:20:06;;;;;;;2.13;1.93;;;;;;;;;;6825190;26;20442;-87
2024/04/08 17:23:06;;;;;;;2.13;1.50;;;;;;;;;;6817451;26;20260;-74
2024/04/08 17:26:06;;;;;;;1.47;1.10;;;;;;;;;;6827092;25;20001;-79
2024/04/08 17:29:07;;;;;;;1.20;1.10;;;;;;;;;;6819919;26;21015;-79
2024/04/08 17:32:07;;;;;;;1.20;0.80;;;;;;;;;;6825371;26;19994;-79
2024/04/08 17:35:08;;;;;;;1.10;1.00;;;;;;;;;;6823224;26;20354;-79
2024/04/08 17:38:08;;;;;;;2.60;1.07;;;;;;;;;;6816372;26;20087;-79
2024/04/08 17:41:09;;;;;;;1.03;0.90;;;;;;;;;;6817828;26;20085;-80
2024/04/08 17:44:09;;;;;;;0.93;0.88;;;;;;;;;;6821619;25;20243;-73
2024/04/08 17:47:10;;;;;;;1.55;1.00;;;;;;;;;;6814152;26;20006;-74
2024/04/08 17:50:10;;;;;;;0.90;0.70;;;;;;;;;;6819850;26;20340;-76
2024/04/08 17:53:10;;;;;;;1.17;0.93;;;;;;;;;;6833267;25;20013;-74
2024/04/08 17:56:13;;;;;;;1.07;0.90;;;;;;;;;;6823825;26;20073;-73
2024/04/08 17:59:13;;;;;;;0.77;0.73;;;;;;;;;;6854482;25;20001;-74
2024/04/08 18:02:14;;;;;;;1.63;0.83;;;;;;;;;;6814588;26;20002;-74
2024/04/08 18:05:14;;;;;;;0.80;0.60;;;;;;;;;;6817016;26;20239;-76
2024/04/08 18:08:14;;;;;;;1.97;0.67;;;;;;;;;;6831846;26;20038;-76
2024/04/08 18:11:15;;;;;;;1.10;0.97;;;;;;;;;;6824717;25;20335;-78
2024/04/08 18:14:15;;;;;;;4.15;1.00;;;;;;;;;;6824349;25;20219;-79